Time;durP1;ratioP1;P1;durP2;ratioP2;P2;SDS_P1;SDS_P2;PMS_P1;PMS_P2;Temp;Humidity;BMP_temperature;BMP_pressure;BME280_temperature;BME280_humidity;BME280_pressure;Samples;Min_cycle;Max_cycle;Signal;HPM_P1;HPM_P2
2022/06/25 00:00:37;;;;;;;;;;;24.00;58.70;;;;;;5101602;27;19923;-58
2022/06/25 00:03:04;;;;;;;;;;;24.00;58.70;;;;;;5138313;27;19926;-58
2022/06/25 00:05:32;;;;;;;;;;;24.00;58.60;;;;;;5095281;28;19978;-59
2022/06/25 00:07:58;;;;;;;;;;;24.00;58.60;;;;;;5113963;27;19919;-58
2022/06/25 00:10:27;;;;;;;;;;;24.00;58.60;;;;;;5116387;27;19919;-56
2022/06/25 00:12:53;;;;;;;;;;;24.00;58.60;;;;;;5120982;27;19943;-58
2022/06/25 00:15:20;;;;;;;;;;;24.00;58.60;;;;;;5099660;27;19975;-58
2022/06/25 00:17:47;;;;;;;;;;;24.00;58.60;;;;;;5120189;27;19919;-60
2022/06/25 00:20:13;;;;;;;;;;;24.00;58.50;;;;;;5121868;27;19927;-59
2022/06/25 00:22:40;;;;;;;;;;;24.00;58.50;;;;;;5108621;28;19927;-58
2022/06/25 00:25:07;;;;;;;;;;;24.00;58.50;;;;;;5107584;27;19962;-57
2022/06/25 00:27:35;;;;;;;;;;;24.00;58.40;;;;;;5116860;27;20342;-58
2022/06/25 00:30:02;;;;;;;;;;;24.00;58.40;;;;;;5113255;27;19926;-58
2022/06/25 00:32:29;;;;;;;;;;;24.00;58.30;;;;;;5101387;27;19927;-57
2022/06/25 00:34:56;;;;;;;;;;;24.00;58.30;;;;;;5122919;27;19920;-59
2022/06/25 00:37:22;;;;;;;;;;;24.00;58.30;;;;;;5108303;27;19966;-58
2022/06/25 00:39:50;;;;;;;;;;;24.00;58.20;;;;;;5119493;27;19920;-58
2022/06/25 00:42:16;;;;;;;;;;;24.00;58.20;;;;;;5099376;27;19926;-59
2022/06/25 00:44:45;;;;;;;;;;;24.00;58.20;;;;;;5116327;27;19932;-59
2022/06/25 00:47:12;;;;;;;;;;;24.00;58.20;;;;;;5101706;27;19930;-58
2022/06/25 00:49:39;;;;;;;;;;;24.00;58.20;;;;;;5118007;27;19931;-58
2022/06/25 00:52:07;;;;;;;;;;;24.00;58.20;;;;;;5099762;28;20365;-58
2022/06/25 00:54:34;;;;;;;;;;;24.00;58.20;;;;;;5130496;27;20361;-57
2022/06/25 00:57:01;;;;;;;;;;;24.00;58.20;;;;;;5110040;27;19920;-58
2022/06/25 00:59:28;;;;;;;;;;;23.90;58.10;;;;;;5119072;27;20353;-58
2022/06/25 01:01:56;;;;;;;;;;;23.90;58.10;;;;;;5111159;28;19920;-57
2022/06/25 01:04:23;;;;;;;;;;;23.90;58.10;;;;;;5106044;28;20433;-58
2022/06/25 01:06:49;;;;;;;;;;;23.90;58.10;;;;;;5092636;28;19931;-58
2022/06/25 01:09:16;;;;;;;;;;;23.90;58.10;;;;;;5110950;28;19943;-57
2022/06/25 01:11:43;;;;;;;;;;;23.90;58.10;;;;;;5125682;27;19927;-57
2022/06/25 01:14:10;;;;;;;;;;;24.00;58.10;;;;;;5113879;27;19989;-59
2022/06/25 01:16:36;;;;;;;;;;;23.90;58.10;;;;;;5097607;28;19923;-58
2022/06/25 01:19:08;;;;;;;;;;;23.90;58.00;;;;;;5114276;27;19959;-57
2022/06/25 01:21:35;;;;;;;;;;;23.90;58.00;;;;;;5100854;27;20387;-58
2022/06/25 01:24:04;;;;;;;;;;;23.90;58.00;;;;;;5110485;27;19935;-58
2022/06/25 01:26:32;;;;;;;;;;;23.90;58.00;;;;;;5102587;27;19966;-58
2022/06/25 01:28:59;;;;;;;;;;;23.90;58.00;;;;;;5119892;27;19977;-58
2022/06/25 01:31:26;;;;;;;;;;;23.90;58.00;;;;;;5110217;28;19919;-58
2022/06/25 01:33:52;;;;;;;;;;;23.90;58.00;;;;;;5119976;27;20279;-58
2022/06/25 01:36:20;;;;;;;;;;;23.90;58.00;;;;;;5108745;28;19939;-58
2022/06/25 01:38:46;;;;;;;;;;;23.90;58.00;;;;;;5110548;27;19974;-58
2022/06/25 01:41:15;;;;;;;;;;;23.90;58.00;;;;;;5115333;27;19919;-58
2022/06/25 01:43:42;;;;;;;;;;;23.90;58.00;;;;;;5098196;27;20376;-57
2022/06/25 01:46:09;;;;;;;;;;;23.90;58.00;;;;;;5108581;27;19969;-57
2022/06/25 01:48:36;;;;;;;;;;;23.90;58.00;;;;;;5104588;27;20006;-57
2022/06/25 01:51:03;;;;;;;;;;;23.90;58.00;;;;;;5111003;27;19927;-58
2022/06/25 01:53:30;;;;;;;;;;;23.90;57.90;;;;;;5115403;27;20210;-57
2022/06/25 01:55:57;;;;;;;;;;;23.90;57.90;;;;;;5095833;28;19920;-58
2022/06/25 01:58:25;;;;;;;;;;;23.90;57.90;;;;;;5100836;27;19927;-59
2022/06/25 02:00:52;;;;;;;;;;;23.90;57.80;;;;;;5119630;27;20341;-59
2022/06/25 02:03:38;;;;;;;;;;;23.90;57.80;;;;;;5099118;27;20406;-59
2022/06/25 02:06:04;;;;;;;;;;;23.90;57.80;;;;;;5105446;28;19953;-59
2022/06/25 02:08:32;;;;;;;;;;;23.90;57.80;;;;;;5109398;27;19924;-59
2022/06/25 02:10:58;;;;;;;;;;;23.90;57.80;;;;;;5114612;27;19927;-57
2022/06/25 02:13:26;;;;;;;;;;;23.90;57.70;;;;;;5100944;27;20378;-56
2022/06/25 02:15:54;;;;;;;;;;;23.90;57.70;;;;;;5113085;27;19965;-56
2022/06/25 02:18:20;;;;;;;;;;;23.90;57.70;;;;;;5118930;27;19931;-57
2022/06/25 02:20:47;;;;;;;;;;;23.90;57.70;;;;;;5118227;27;19924;-57
2022/06/25 02:23:14;;;;;;;;;;;23.90;57.80;;;;;;5115661;27;19966;-56
2022/06/25 02:25:42;;;;;;;;;;;23.90;57.80;;;;;;5118842;27;19934;-57
2022/06/25 02:28:11;;;;;;;;;;;23.90;57.80;;;;;;5117445;27;19920;-57
2022/06/25 02:30:39;;;;;;;;;;;23.90;57.80;;;;;;5121415;27;20459;-57
2022/06/25 02:33:19;;;;;;;;;;;23.90;57.70;;;;;;5115189;27;19962;-58
2022/06/25 02:35:46;;;;;;;;;;;23.90;57.70;;;;;;5131683;27;19949;-58
2022/06/25 02:38:13;;;;;;;;;;;23.90;57.70;;;;;;5116467;27;19931;-59
2022/06/25 02:40:39;;;;;;;;;;;23.90;57.70;;;;;;5108874;28;19919;-58
2022/06/25 02:43:06;;;;;;;;;;;23.90;57.70;;;;;;5115190;27;19932;-59
2022/06/25 02:45:33;;;;;;;;;;;23.90;57.60;;;;;;5107318;27;19920;-59
2022/06/25 02:48:01;;;;;;;;;;;23.90;57.60;;;;;;5093936;28;19955;-59
2022/06/25 02:50:28;;;;;;;;;;;23.90;57.60;;;;;;5109435;27;20293;-59
2022/06/25 02:52:55;;;;;;;;;;;23.90;57.60;;;;;;5099664;27;19959;-59
2022/06/25 02:58:54;;;;;;;;;;;23.90;57.50;;;;;;5076596;28;19928;-58
2022/06/25 03:00:53;;;;;;;;;;;23.90;57.50;;;;;;5109141;27;20023;-56
2022/06/25 03:03:22;;;;;;;;;;;23.90;57.40;;;;;;5094940;28;19973;-56
2022/06/25 03:05:48;;;;;;;;;;;23.90;57.40;;;;;;5090816;28;20368;-58
2022/06/25 03:08:15;;;;;;;;;;;23.90;57.40;;;;;;5099309;28;19954;-59
2022/06/25 03:10:42;;;;;;;;;;;23.90;57.40;;;;;;5117099;28;19920;-58
2022/06/25 03:13:10;;;;;;;;;;;23.90;57.40;;;;;;5115618;28;20273;-58
2022/06/25 03:15:36;;;;;;;;;;;23.90;57.40;;;;;;5096281;28;19919;-58
2022/06/25 03:18:03;;;;;;;;;;;23.80;57.30;;;;;;5120426;28;19943;-57
2022/06/25 03:20:31;;;;;;;;;;;23.90;57.40;;;;;;5108596;28;19954;-56
2022/06/25 03:22:58;;;;;;;;;;;23.90;57.40;;;;;;5092367;28;19924;-56
2022/06/25 03:25:25;;;;;;;;;;;23.80;57.30;;;;;;5109563;28;20022;-59
2022/06/25 03:27:51;;;;;;;;;;;23.80;57.30;;;;;;5115999;28;19979;-57
2022/06/25 03:30:18;;;;;;;;;;;23.80;57.30;;;;;;5119891;27;19973;-57
2022/06/25 03:32:45;;;;;;;;;;;23.80;57.30;;;;;;5098631;28;19920;-57
2022/06/25 03:35:12;;;;;;;;;;;23.80;57.30;;;;;;5120992;27;20376;-60
2022/06/25 03:37:40;;;;;;;;;;;23.80;57.30;;;;;;5121491;27;19920;-58
2022/06/25 03:40:07;;;;;;;;;;;23.90;57.40;;;;;;5102210;27;19931;-56
2022/06/25 03:42:34;;;;;;;;;;;23.80;57.30;;;;;;5112222;27;19955;-56
2022/06/25 03:45:01;;;;;;;;;;;23.80;57.30;;;;;;5119783;27;19923;-57
2022/06/25 03:47:28;;;;;;;;;;;23.80;57.30;;;;;;5121415;27;20326;-57
2022/06/25 03:49:55;;;;;;;;;;;23.80;57.30;;;;;;5121572;27;20313;-56
2022/06/25 03:52:21;;;;;;;;;;;23.80;57.30;;;;;;5110136;27;20534;-56
2022/06/25 03:54:50;;;;;;;;;;;23.80;57.30;;;;;;5101697;27;19969;-56
2022/06/25 03:57:16;;;;;;;;;;;23.80;57.80;;;;;;5120547;27;19919;-56
2022/06/25 03:59:43;;;;;;;;;;;23.80;57.30;;;;;;5118646;27;19928;-56
2022/06/25 04:02:10;;;;;;;;;;;23.80;57.30;;;;;;5101064;27;19927;-53
2022/06/25 04:04:36;;;;;;;;;;;23.80;57.20;;;;;;5124860;27;20055;-56
2022/06/25 04:07:03;;;;;;;;;;;23.80;57.20;;;;;;5106049;27;19935;-57
2022/06/25 04:09:30;;;;;;;;;;;23.80;57.20;;;;;;5120784;27;19919;-57
2022/06/25 04:11:58;;;;;;;;;;;23.80;57.20;;;;;;5103333;27;19924;-58
2022/06/25 04:14:25;;;;;;;;;;;23.80;57.20;;;;;;5119194;27;19993;-57
2022/06/25 04:16:54;;;;;;;;;;;23.80;57.20;;;;;;5117412;27;19927;-57
2022/06/25 04:19:20;;;;;;;;;;;23.80;57.20;;;;;;5113741;27;19988;-56
2022/06/25 04:21:50;;;;;;;;;;;23.80;57.20;;;;;;5094622;28;19920;-57
2022/06/25 04:24:17;;;;;;;;;;;23.80;57.20;;;;;;5115740;27;19973;-56
2022/06/25 04:26:44;;;;;;;;;;;23.80;57.10;;;;;;5121049;27;20180;-58
2022/06/25 04:29:11;;;;;;;;;;;23.80;57.10;;;;;;5099110;28;19928;-57
2022/06/25 04:31:38;;;;;;;;;;;23.80;57.10;;;;;;5120549;27;19931;-56
2022/06/25 04:34:05;;;;;;;;;;;23.80;57.10;;;;;;5118741;27;19924;-57
2022/06/25 04:36:32;;;;;;;;;;;23.80;57.10;;;;;;5107214;27;19919;-59
2022/06/25 04:38:59;;;;;;;;;;;23.80;57.00;;;;;;5117845;27;19928;-57
2022/06/25 04:41:26;;;;;;;;;;;23.80;57.00;;;;;;5121752;27;19931;-56
2022/06/25 04:43:53;;;;;;;;;;;23.80;57.00;;;;;;5098347;27;20407;-56
2022/06/25 04:46:21;;;;;;;;;;;23.80;57.00;;;;;;5113156;27;19977;-56
2022/06/25 04:48:47;;;;;;;;;;;23.80;57.00;;;;;;5104338;27;19931;-58
2022/06/25 04:51:15;;;;;;;;;;;23.80;57.00;;;;;;5119487;27;19967;-57
2022/06/25 04:53:55;;;;;;;;;;;23.80;57.00;;;;;;5122573;27;19926;-57
2022/06/25 04:56:23;;;;;;;;;;;23.80;57.00;;;;;;5113407;27;19923;-55
2022/06/25 04:58:50;;;;;;;;;;;23.80;57.00;;;;;;5103547;27;19962;-56
2022/06/25 05:01:16;;;;;;;;;;;23.80;57.00;;;;;;5098747;27;20433;-57
2022/06/25 05:03:45;;;;;;;;;;;23.80;57.00;;;;;;5124811;27;19919;-57
2022/06/25 05:06:11;;;;;;;;;;;23.80;57.00;;;;;;5114218;27;20364;-57
2022/06/25 05:08:38;;;;;;;;;;;23.80;57.00;;;;;;5100768;27;19970;-57
2022/06/25 05:11:05;;;;;;;;;;;23.80;57.00;;;;;;5108954;27;19920;-56
2022/06/25 05:13:32;;;;;;;;;;;23.80;57.00;;;;;;5101335;27;19927;-56
2022/06/25 05:15:59;;;;;;;;;;;23.80;57.00;;;;;;5121675;27;19927;-56
2022/06/25 05:18:25;;;;;;;;;;;23.80;57.00;;;;;;5117493;27;19936;-59
2022/06/25 05:20:53;;;;;;;;;;;23.80;57.00;;;;;;5106554;28;20424;-59
2022/06/25 05:23:20;;;;;;;;;;;23.80;57.10;;;;;;5102301;27;19966;-60
2022/06/25 05:25:47;;;;;;;;;;;23.80;57.10;;;;;;5120916;27;19997;-59
2022/06/25 05:28:15;;;;;;;;;;;23.80;57.10;;;;;;5112738;27;21020;-59
2022/06/25 05:30:42;;;;;;;;;;;23.90;57.20;;;;;;5139444;27;20405;-58
2022/06/25 05:33:08;;;;;;;;;;;23.90;57.20;;;;;;5118183;27;19919;-59
2022/06/25 05:35:35;;;;;;;;;;;23.90;57.20;;;;;;5101431;27;20018;-59
2022/06/25 05:38:03;;;;;;;;;;;23.90;57.20;;;;;;5124775;27;20330;-59
2022/06/25 05:40:30;;;;;;;;;;;23.80;57.10;;;;;;5113184;27;20263;-59
2022/06/25 05:42:56;;;;;;;;;;;23.80;57.10;;;;;;5102718;27;20362;-58
2022/06/25 05:45:23;;;;;;;;;;;23.90;57.20;;;;;;5113845;27;20408;-59
2022/06/25 05:47:50;;;;;;;;;;;23.90;57.20;;;;;;5097669;27;20004;-59
2022/06/25 05:50:17;;;;;;;;;;;23.90;57.20;;;;;;5109838;28;19920;-59
2022/06/25 05:52:43;;;;;;;;;;;23.90;57.20;;;;;;5111075;27;19965;-57
2022/06/25 05:55:12;;;;;;;;;;;23.90;57.20;;;;;;5097949;28;19932;-59
2022/06/25 05:57:39;;;;;;;;;;;23.90;57.20;;;;;;5080647;27;19946;-59
2022/06/25 06:00:08;;;;;;;;;;;23.90;57.20;;;;;;5121347;27;19969;-58
2022/06/25 06:02:35;;;;;;;;;;;23.90;57.20;;;;;;5114958;27;20006;-59
2022/06/25 06:05:02;;;;;;;;;;;23.90;57.10;;;;;;5123931;27;19966;-57
2022/06/25 06:07:29;;;;;;;;;;;23.90;57.10;;;;;;5098284;28;19919;-59
2022/06/25 06:09:56;;;;;;;;;;;23.90;57.10;;;;;;5094334;28;20011;-59
2022/06/25 06:12:24;;;;;;;;;;;23.90;57.10;;;;;;5106682;27;19980;-59
2022/06/25 06:14:51;;;;;;;;;;;23.90;57.10;;;;;;5123115;27;20018;-59
2022/06/25 06:17:17;;;;;;;;;;;23.90;57.00;;;;;;5109559;27;20333;-58
2022/06/25 06:19:44;;;;;;;;;;;23.90;57.00;;;;;;5108277;27;19931;-57
2022/06/25 06:22:11;;;;;;;;;;;23.90;57.00;;;;;;5108893;27;19927;-57
2022/06/25 06:24:38;;;;;;;;;;;23.90;57.00;;;;;;5096475;27;20566;-59
2022/06/25 06:27:05;;;;;;;;;;;23.90;57.00;;;;;;5112899;27;19919;-58
2022/06/25 06:29:33;;;;;;;;;;;23.90;57.00;;;;;;5115002;27;19931;-58
2022/06/25 06:32:00;;;;;;;;;;;23.90;57.00;;;;;;5099061;27;19947;-56
2022/06/25 06:34:26;;;;;;;;;;;23.90;56.90;;;;;;5116494;27;20190;-56
2022/06/25 06:36:53;;;;;;;;;;;23.90;57.00;;;;;;5096792;27;20004;-56
2022/06/25 06:39:20;;;;;;;;;;;23.90;56.90;;;;;;5099172;27;19934;-57
2022/06/25 06:41:47;;;;;;;;;;;23.90;56.90;;;;;;5093725;27;19920;-58
2022/06/25 06:44:14;;;;;;;;;;;23.90;56.90;;;;;;5107972;27;19919;-57
2022/06/25 06:46:42;;;;;;;;;;;23.90;56.80;;;;;;5114473;27;19920;-56
2022/06/25 06:49:10;;;;;;;;;;;23.90;56.80;;;;;;5107785;28;19985;-56
2022/06/25 06:51:37;;;;;;;;;;;23.90;56.80;;;;;;5093209;28;20346;-56
2022/06/25 06:54:03;;;;;;;;;;;23.90;56.80;;;;;;5117472;27;19967;-56
2022/06/25 06:56:30;;;;;;;;;;;24.00;56.80;;;;;;5099382;28;20437;-57
2022/06/25 06:58:57;;;;;;;;;;;24.00;56.80;;;;;;5125745;27;20049;-57
2022/06/25 07:01:24;;;;;;;;;;;24.00;56.80;;;;;;5108455;28;19932;-57
2022/06/25 07:03:53;;;;;;;;;;;24.00;56.80;;;;;;5110501;28;19919;-57
2022/06/25 07:06:20;;;;;;;;;;;24.00;56.90;;;;;;5110353;28;19923;-56
2022/06/25 07:08:46;;;;;;;;;;;24.00;56.90;;;;;;5108945;28;19924;-57
2022/06/25 07:11:31;;;;;;;;;;;24.00;57.00;;;;;;5091459;28;19920;-57
2022/06/25 07:13:58;;;;;;;;;;;24.00;57.10;;;;;;5109250;28;19920;-57
2022/06/25 07:16:25;;;;;;;;;;;24.00;57.20;;;;;;5111897;28;19927;-57
2022/06/25 07:18:53;;;;;;;;;;;24.00;57.20;;;;;;5112637;28;19951;-57
2022/06/25 07:21:20;;;;;;;;;;;24.00;57.30;;;;;;5087187;28;20420;-56
2022/06/25 07:23:46;;;;;;;;;;;24.00;57.40;;;;;;5085047;28;19963;-57
2022/06/25 07:26:13;;;;;;;;;;;24.00;57.40;;;;;;5108009;28;20394;-57
2022/06/25 07:28:40;;;;;;;;;;;24.00;57.40;;;;;;5099013;28;20248;-57
2022/06/25 07:31:06;;;;;;;;;;;24.00;57.40;;;;;;5109073;28;20415;-56
2022/06/25 07:33:34;;;;;;;;;;;24.00;57.40;;;;;;5095018;28;19920;-56
2022/06/25 07:36:02;;;;;;;;;;;24.00;57.40;;;;;;5094518;28;20045;-57
2022/06/25 07:38:29;;;;;;;;;;;24.00;57.30;;;;;;5098181;28;19924;-57
2022/06/25 07:40:56;;;;;;;;;;;24.00;57.20;;;;;;5124748;28;19924;-57
2022/06/25 07:43:22;;;;;;;;;;;24.00;57.20;;;;;;5109531;28;19966;-57
2022/06/25 07:45:49;;;;;;;;;;;24.00;57.10;;;;;;5106218;28;20441;-57
2022/06/25 07:48:16;;;;;;;;;;;24.00;57.20;;;;;;5114251;28;19984;-57
2022/06/25 07:53:28;;;;;;;;;;;24.00;57.10;;;;;;5103051;28;20283;-57
2022/06/25 07:55:55;;;;;;;;;;;24.00;57.10;;;;;;5113906;28;19972;-57
2022/06/25 07:58:23;;;;;;;;;;;24.00;57.10;;;;;;5111980;28;19927;-56
2022/06/25 08:00:50;;;;;;;;;;;24.00;57.10;;;;;;5102846;28;20397;-57
2022/06/25 08:03:18;;;;;;;;;;;24.00;57.10;;;;;;5109129;28;20050;-55
2022/06/25 08:05:45;;;;;;;;;;;24.00;57.00;;;;;;5109143;28;20410;-57
2022/06/25 08:08:12;;;;;;;;;;;24.00;57.00;;;;;;5094266;28;20409;-57
2022/06/25 08:10:40;;;;;;;;;;;24.00;57.00;;;;;;5093050;28;19923;-57
2022/06/25 08:13:07;;;;;;;;;;;24.00;57.00;;;;;;5104708;28;19919;-57
2022/06/25 08:15:34;;;;;;;;;;;24.00;57.00;;;;;;5099302;28;19950;-57
2022/06/25 08:18:01;;;;;;;;;;;24.00;57.00;;;;;;5115132;27;20215;-57
2022/06/25 08:20:28;;;;;;;;;;;24.00;57.00;;;;;;5098141;28;19963;-58
2022/06/25 08:22:54;;;;;;;;;;;24.00;57.10;;;;;;5111432;27;20380;-59
2022/06/25 08:25:21;;;;;;;;;;;24.00;57.00;;;;;;5111444;27;19923;-57
2022/06/25 08:27:50;;;;;;;;;;;24.00;57.00;;;;;;5128392;27;19920;-58
2022/06/25 08:30:17;;;;;;;;;;;24.00;57.00;;;;;;5127708;27;19920;-58
2022/06/25 08:32:44;;;;;;;;;;;24.00;57.00;;;;;;5096707;28;20023;-57
2022/06/25 08:35:10;;;;;;;;;;;24.00;57.00;;;;;;5090586;28;19926;-58
2022/06/25 08:37:38;;;;;;;;;;;24.00;56.90;;;;;;5111117;27;19973;-57
2022/06/25 08:40:05;;;;;;;;;;;24.00;57.00;;;;;;5113225;27;19939;-57
2022/06/25 08:42:32;;;;;;;;;;;24.00;57.00;;;;;;5093272;27;20315;-57
2022/06/25 08:45:00;;;;;;;;;;;24.00;56.90;;;;;;5088358;28;19922;-57
2022/06/25 08:47:28;;;;;;;;;;;24.10;57.00;;;;;;5120582;27;19920;-58
2022/06/25 08:49:54;;;;;;;;;;;24.10;57.10;;;;;;5117885;27;19919;-57
2022/06/25 08:52:21;;;;;;;;;;;24.10;57.00;;;;;;5112738;28;19924;-57
2022/06/25 08:54:48;;;;;;;;;;;24.10;57.00;;;;;;5094035;28;19947;-57
2022/06/25 08:57:14;;;;;;;;;;;24.10;56.90;;;;;;5112882;27;20018;-57
2022/06/25 08:59:41;;;;;;;;;;;24.10;56.90;;;;;;5093437;28;19962;-57
2022/06/25 09:02:10;;;;;;;;;;;24.10;56.90;;;;;;5094179;28;19973;-58
2022/06/25 09:04:36;;;;;;;;;;;24.10;56.90;;;;;;5111741;28;19919;-58
2022/06/25 09:07:10;;;;;;;;;;;24.10;56.80;;;;;;5095052;28;19942;-57
2022/06/25 09:09:37;;;;;;;;;;;24.10;56.90;;;;;;5113345;27;19920;-55
2022/06/25 09:12:05;;;;;;;;;;;24.10;56.80;;;;;;5107954;27;19959;-57
2022/06/25 09:14:32;;;;;;;;;;;24.10;56.70;;;;;;5094247;28;20444;-57
2022/06/25 09:16:59;;;;;;;;;;;24.10;56.70;;;;;;5111845;28;19926;-57
2022/06/25 09:19:29;;;;;;;;;;;24.10;56.60;;;;;;5097033;28;19985;-57
2022/06/25 09:21:56;;;;;;;;;;;24.10;56.50;;;;;;5094435;27;19931;-57
2022/06/25 09:24:23;;;;;;;;;;;24.10;56.30;;;;;;5128084;27;20026;-57
2022/06/25 09:26:52;;;;;;;;;;;24.10;56.20;;;;;;5112968;28;20454;-58
2022/06/25 09:29:20;;;;;;;;;;;24.10;56.10;;;;;;5104118;28;20005;-58
2022/06/25 09:31:47;;;;;;;;;;;24.10;56.10;;;;;;5090402;28;20633;-57
2022/06/25 09:34:13;;;;;;;;;;;24.10;56.10;;;;;;5098298;28;19969;-58
2022/06/25 09:36:41;;;;;;;;;;;24.10;56.10;;;;;;5116705;27;20370;-58
2022/06/25 09:39:08;;;;;;;;;;;24.10;56.10;;;;;;5099170;28;19919;-57
2022/06/25 09:41:50;;;;;;;;;;;24.10;56.00;;;;;;5092924;28;19993;-58
2022/06/25 09:44:18;;;;;;;;;;;24.10;55.90;;;;;;5100117;27;20367;-57
2022/06/25 09:46:54;;;;;;;;;;;24.10;55.80;;;;;;5109753;27;19924;-58
2022/06/25 09:49:24;;;;;;;;;;;24.10;55.70;;;;;;5094466;28;19919;-57
2022/06/25 09:52:00;;;;;;;;;;;24.10;55.50;;;;;;5104404;28;19926;-57
2022/06/25 09:54:27;;;;;;;;;;;24.10;55.50;;;;;;5109749;27;19931;-57
2022/06/25 09:56:53;;;;;;;;;;;24.10;55.50;;;;;;5108180;28;19919;-56
2022/06/25 09:59:20;;;;;;;;;;;24.10;55.40;;;;;;5107393;27;20022;-58
2022/06/25 10:01:47;;;;;;;;;;;24.10;55.40;;;;;;5107789;27;19924;-58
2022/06/25 10:04:13;;;;;;;;;;;24.10;55.40;;;;;;5103007;28;19928;-58
2022/06/25 10:06:40;;;;;;;;;;;24.10;55.30;;;;;;5108461;28;19974;-58
2022/06/25 10:09:09;;;;;;;;;;;24.10;55.30;;;;;;5109711;27;20030;-57
2022/06/25 10:11:37;;;;;;;;;;;24.10;55.30;;;;;;5089772;28;19920;-57
2022/06/25 10:14:04;;;;;;;;;;;24.10;55.20;;;;;;5108603;27;19928;-57
2022/06/25 10:16:31;;;;;;;;;;;24.10;55.20;;;;;;5103076;27;19924;-57
2022/06/25 10:18:57;;;;;;;;;;;24.10;55.20;;;;;;5109622;27;20008;-55
2022/06/25 10:21:24;;;;;;;;;;;24.10;55.10;;;;;;5110029;28;20037;-57
2022/06/25 10:23:52;;;;;;;;;;;24.10;55.10;;;;;;5108382;28;19931;-57
2022/06/25 10:26:20;;;;;;;;;;;24.20;55.00;;;;;;5108880;27;19919;-56
2022/06/25 10:28:47;;;;;;;;;;;24.20;55.00;;;;;;5110844;27;19928;-54
2022/06/25 10:31:16;;;;;;;;;;;24.10;54.90;;;;;;5108552;27;19931;-57
2022/06/25 10:33:53;;;;;;;;;;;24.20;55.00;;;;;;5105518;28;20351;-57
2022/06/25 10:36:26;;;;;;;;;;;24.20;54.90;;;;;;5107935;28;20383;-56
2022/06/25 10:38:53;;;;;;;;;;;24.20;54.80;;;;;;5090161;28;19920;-57
2022/06/25 10:44:05;;;;;;;;;;;24.20;54.80;;;;;;5109473;27;19923;-57
2022/06/25 10:46:32;;;;;;;;;;;24.20;54.70;;;;;;5112132;27;19970;-57
2022/06/25 10:49:04;;;;;;;;;;;24.20;54.60;;;;;;5109325;28;19927;-57
2022/06/25 10:51:32;;;;;;;;;;;24.20;54.70;;;;;;5091711;28;20466;-57
2022/06/25 10:53:59;;;;;;;;;;;24.20;54.60;;;;;;5109307;28;20318;-57
2022/06/25 10:56:27;;;;;;;;;;;24.20;54.50;;;;;;5108007;27;20005;-57
2022/06/25 10:58:56;;;;;;;;;;;24.30;54.60;;;;;;5090630;28;20464;-57
2022/06/25 11:01:24;;;;;;;;;;;24.20;54.60;;;;;;5106589;27;19927;-57
2022/06/25 11:03:54;;;;;;;;;;;24.20;54.60;;;;;;5109788;28;19966;-58
2022/06/25 11:06:22;;;;;;;;;;;24.30;54.70;;;;;;5109194;27;20015;-58
2022/06/25 11:08:49;;;;;;;;;;;24.20;54.60;;;;;;5090503;28;19920;-58
2022/06/25 11:11:23;;;;;;;;;;;24.30;54.70;;;;;;5110253;28;20323;-57
2022/06/25 11:13:51;;;;;;;;;;;24.30;54.60;;;;;;5109970;28;19970;-58
2022/06/25 11:16:18;;;;;;;;;;;24.20;54.50;;;;;;5093295;28;19981;-56
2022/06/25 11:18:48;;;;;;;;;;;24.30;54.50;;;;;;5110286;28;19931;-57
2022/06/25 11:21:25;;;;;;;;;;;24.30;54.50;;;;;;5107050;28;19920;-57
2022/06/25 11:23:51;;;;;;;;;;;24.30;54.20;;;;;;5093923;28;19923;-57
2022/06/25 11:29:04;;;;;;;;;;;24.30;54.20;;;;;;5108516;28;19920;-57
2022/06/25 11:31:33;;;;;;;;;;;24.30;53.80;;;;;;5103243;28;20253;-58
2022/06/25 11:34:00;;;;;;;;;;;24.30;53.80;;;;;;5101501;28;19935;-58
2022/06/25 11:36:27;;;;;;;;;;;24.30;53.80;;;;;;5092728;28;19962;-58
2022/06/25 11:38:54;;;;;;;;;;;24.30;53.90;;;;;;5095287;28;19919;-59
2022/06/25 11:41:21;;;;;;;;;;;24.30;53.80;;;;;;5109568;28;19924;-59
2022/06/25 11:43:48;;;;;;;;;;;24.30;53.80;;;;;;5106250;28;20294;-59
2022/06/25 11:46:18;;;;;;;;;;;24.30;53.80;;;;;;5104398;28;19959;-56
2022/06/25 11:48:46;;;;;;;;;;;24.30;53.70;;;;;;5111673;27;19920;-58
2022/06/25 11:51:13;;;;;;;;;;;24.30;53.80;;;;;;5107228;28;20376;-59
2022/06/25 11:53:40;;;;;;;;;;;24.30;53.80;;;;;;5113573;27;19924;-59
2022/06/25 11:56:07;;;;;;;;;;;24.30;53.80;;;;;;5096042;27;19939;-59
2022/06/25 11:58:35;;;;;;;;;;;24.30;53.60;;;;;;5110640;27;19955;-60
2022/06/25 12:01:02;;;;;;;;;;;24.40;53.70;;;;;;5108286;27;19927;-59
2022/06/25 12:03:30;;;;;;;;;;;24.40;53.40;;;;;;5113639;27;20022;-59
2022/06/25 12:05:57;;;;;;;;;;;24.40;53.30;;;;;;5111732;28;19924;-60
2022/06/25 12:08:24;;;;;;;;;;;24.40;53.30;;;;;;5110592;27;19932;-59
2022/06/25 12:10:51;;;;;;;;;;;24.40;53.40;;;;;;5110229;27;20280;-59
2022/06/25 12:13:18;;;;;;;;;;;24.40;53.40;;;;;;5114376;27;19930;-57
2022/06/25 12:15:44;;;;;;;;;;;24.40;53.40;;;;;;5095892;27;20010;-60
2022/06/25 12:18:11;;;;;;;;;;;24.40;53.40;;;;;;5109525;28;19928;-59
2022/06/25 12:23:48;;;;;;;;;;;24.40;53.50;;;;;;5115719;27;20374;-59
2022/06/25 12:26:24;;;;;;;;;;;24.40;53.50;;;;;;5112007;28;19923;-59
2022/06/25 12:28:51;;;;;;;;;;;24.40;53.50;;;;;;5125063;28;19926;-58
2022/06/25 12:31:18;;;;;;;;;;;24.50;53.60;;;;;;5118642;28;20007;-60
2022/06/25 12:33:49;;;;;;;;;;;24.50;53.70;;;;;;5121726;28;20338;-60
2022/06/25 12:36:16;;;;;;;;;;;24.50;53.70;;;;;;5115471;28;19926;-60
2022/06/25 12:38:43;;;;;;;;;;;24.50;53.70;;;;;;5120678;28;20332;-60
2022/06/25 12:41:10;;;;;;;;;;;24.50;53.70;;;;;;5117219;28;19924;-59
2022/06/25 12:43:47;;;;;;;;;;;24.50;53.80;;;;;;5120036;27;20296;-57
2022/06/25 12:46:15;;;;;;;;;;;24.50;53.60;;;;;;5117165;28;20010;-55
2022/06/25 12:48:42;;;;;;;;;;;24.50;53.60;;;;;;5121196;28;19924;-54
2022/06/25 12:51:09;;;;;;;;;;;24.60;53.60;;;;;;5112658;28;19928;-54
2022/06/25 12:53:36;;;;;;;;;;;24.60;53.60;;;;;;5115939;28;19924;-56
2022/06/25 12:56:03;;;;;;;;;;;24.60;53.60;;;;;;5110292;28;20368;-58
2022/06/25 12:58:34;;;;;;;;;;;24.60;53.40;;;;;;5115240;28;19972;-56
2022/06/25 13:01:02;;;;;;;;;;;24.60;53.30;;;;;;5118068;28;19923;-57
2022/06/25 13:03:29;;;;;;;;;;;24.60;53.20;;;;;;5127951;27;19981;-57
2022/06/25 13:05:55;;;;;;;;;;;24.60;53.10;;;;;;5117508;28;19969;-51
2022/06/25 13:08:22;;;;;;;;;;;24.60;53.00;;;;;;5111635;28;20280;-56
2022/06/25 13:10:49;;;;;;;;;;;24.60;52.90;;;;;;5122150;28;19934;-54
2022/06/25 13:13:15;;;;;;;;;;;24.60;52.70;;;;;;5118944;28;19973;-54
2022/06/25 13:15:42;;;;;;;;;;;24.60;52.70;;;;;;5121990;27;19920;-55
2022/06/25 13:18:11;;;;;;;;;;;24.60;52.60;;;;;;5117401;28;19923;-56
2022/06/25 13:20:37;;;;;;;;;;;24.60;52.50;;;;;;5120775;28;20044;-57
2022/06/25 13:23:04;;;;;;;;;;;24.70;52.50;;;;;;5137070;27;19926;-55
2022/06/25 13:25:31;;;;;;;;;;;24.70;52.40;;;;;;5118865;28;19920;-55
2022/06/25 13:27:58;;;;;;;;;;;24.70;52.40;;;;;;5120147;28;20435;-53
2022/06/25 13:30:25;;;;;;;;;;;24.70;52.40;;;;;;5116568;28;19920;-57
2022/06/25 13:32:52;;;;;;;;;;;24.70;52.40;;;;;;5115844;28;20332;-57
2022/06/25 13:35:20;;;;;;;;;;;24.70;52.30;;;;;;5104117;28;20023;-57
2022/06/25 13:37:47;;;;;;;;;;;24.70;52.20;;;;;;5103147;28;20322;-56
2022/06/25 13:40:14;;;;;;;;;;;24.70;52.10;;;;;;5108300;28;19977;-56
2022/06/25 13:42:41;;;;;;;;;;;24.70;52.00;;;;;;5098709;28;19920;-53
2022/06/25 13:45:08;;;;;;;;;;;24.80;52.00;;;;;;5101122;28;19924;-54
2022/06/25 13:47:36;;;;;;;;;;;24.80;52.00;;;;;;5104895;28;19951;-55
2022/06/25 13:50:03;;;;;;;;;;;24.80;51.90;;;;;;5101003;28;20408;-57
2022/06/25 13:52:31;;;;;;;;;;;24.80;52.00;;;;;;5102694;28;19960;-56
2022/06/25 13:54:57;;;;;;;;;;;24.80;52.00;;;;;;5104119;28;19955;-58
2022/06/25 13:57:25;;;;;;;;;;;24.80;51.90;;;;;;5107667;28;19924;-54
2022/06/25 13:59:51;;;;;;;;;;;24.80;52.00;;;;;;5107167;28;19932;-52
2022/06/25 14:02:18;;;;;;;;;;;24.80;51.80;;;;;;5102398;28;19935;-51
2022/06/25 14:04:45;;;;;;;;;;;24.80;51.70;;;;;;5105990;28;19931;-57
2022/06/25 14:07:11;;;;;;;;;;;24.80;51.80;;;;;;5094631;28;19973;-55
2022/06/25 14:09:40;;;;;;;;;;;24.80;51.90;;;;;;5108751;28;20284;-56
2022/06/25 14:12:06;;;;;;;;;;;24.80;51.90;;;;;;5095540;28;19920;-56
2022/06/25 14:14:33;;;;;;;;;;;24.80;51.90;;;;;;5101617;28;19920;-53
2022/06/25 14:17:00;;;;;;;;;;;24.80;51.80;;;;;;5099644;28;19927;-55
2022/06/25 14:19:27;;;;;;;;;;;24.80;51.80;;;;;;5100369;28;19920;-57
2022/06/25 14:21:53;;;;;;;;;;;24.80;51.80;;;;;;5094713;28;20331;-55
2022/06/25 14:27:02;;;;;;;;;;;24.80;51.60;;;;;;5097428;28;20376;-56
2022/06/25 14:29:29;;;;;;;;;;;24.80;51.70;;;;;;5098996;28;20029;-55
2022/06/25 14:31:56;;;;;;;;;;;24.80;51.80;;;;;;5106390;28;20261;-55
2022/06/25 14:34:23;;;;;;;;;;;24.80;51.80;;;;;;5102865;28;19924;-57